Terminal Aerodrome Forecast
Issued by NWS

Home | Current Version | Previous Version | Text Only | Print | Product List | Glossary Off
Versions: 1 2 3 4 5 6 7 8 9 10 11 12 13 14 15 16 17 18 19 20 21 22

043
FTUS43 KLSX 281729
TAFUIN
TAF
KUIN 281729Z 2818/2918 19015KT P6SM SCT025 BKN250
     FM281900 21015KT P6SM VCTS SCT025 BKN050CB
     FM290000 23005KT P6SM FEW050 SCT250
     FM291400 28009KT P6SM FEW050 SCT250=

USA.gov is the U.S. government's official web portal to all federal, state and local government web resources and services.